Time;durP1;ratioP1;P1;durP2;ratioP2;P2;SDS_P1;SDS_P2;PMS_P1;PMS_P2;Temp;Humidity;BMP_temperature;BMP_pressure;BME280_temperature;BME280_humidity;BME280_pressure;Samples;Min_cycle;Max_cycle;Signal;HPM_P1;HPM_P2
2022/03/17 00:02:21;;;;;;;25.02;21.10;;;8.80;99.90;;;;;;1900211;74;21029;-76
2022/03/17 00:04:48;;;;;;;25.32;20.97;;;8.70;99.90;;;;;;1908002;75;21106;-76
2022/03/17 00:07:16;;;;;;;26.93;22.27;;;8.60;99.90;;;;;;1899958;74;21084;-75
2022/03/17 00:09:44;;;;;;;28.50;22.52;;;8.60;99.90;;;;;;1903689;75;21079;-76
2022/03/17 00:12:13;;;;;;;31.15;22.58;;;8.60;99.90;;;;;;1909130;75;21186;-75
2022/03/17 00:14:40;;;;;;;28.62;22.52;;;8.50;99.90;;;;;;1902833;74;21084;-76
2022/03/17 00:17:08;;;;;;;27.87;22.07;;;8.40;99.90;;;;;;1907680;74;21073;-75
2022/03/17 00:19:40;;;;;;;30.85;22.80;;;8.50;99.90;;;;;;1905325;75;21074;-76
2022/03/17 00:22:15;;;;;;;33.38;22.62;;;8.60;99.90;;;;;;1905504;74;21641;-76
2022/03/17 00:24:37;;;;;;;28.85;22.13;;;8.60;99.90;;;;;;1906255;75;21089;-75
2022/03/17 00:27:12;;;;;;;28.42;23.38;;;8.50;99.90;;;;;;1906028;75;21177;-76
2022/03/17 00:29:37;;;;;;;29.57;22.85;;;8.50;99.90;;;;;;1904581;74;21178;-76
2022/03/17 00:32:05;;;;;;;29.07;23.77;;;8.40;99.90;;;;;;1899601;75;21140;-75
2022/03/17 00:34:32;;;;;;;32.88;22.35;;;8.30;99.90;;;;;;1901081;74;21146;-75
2022/03/17 00:36:59;;;;;;;27.32;22.90;;;8.30;99.90;;;;;;1895262;74;21439;-75
2022/03/17 00:39:27;;;;;;;26.00;22.42;;;8.20;99.90;;;;;;1899815;74;21154;-76
2022/03/17 00:41:54;;;;;;;31.20;23.47;;;8.30;99.90;;;;;;1909087;74;21083;-76
2022/03/17 00:44:23;;;;;;;27.25;23.22;;;8.30;99.90;;;;;;1900449;74;21076;-76
2022/03/17 00:46:50;;;;;;;30.48;23.18;;;8.30;99.90;;;;;;1900951;74;21157;-75
2022/03/17 00:49:18;;;;;;;30.15;23.52;;;8.30;99.90;;;;;;1906271;75;21109;-74
2022/03/17 00:51:46;;;;;;;30.97;22.85;;;8.30;99.90;;;;;;1900986;74;21068;-75
2022/03/17 00:54:13;;;;;;;28.17;23.47;;;8.30;99.90;;;;;;1909215;75;21143;-75
2022/03/17 00:56:40;;;;;;;34.43;23.73;;;8.10;99.90;;;;;;1909115;74;21100;-75
2022/03/17 00:59:07;;;;;;;36.48;24.70;;;8.20;99.90;;;;;;1898698;74;21131;-76
2022/03/17 01:01:35;;;;;;;33.50;24.27;;;8.20;99.90;;;;;;1899914;74;21025;-76
2022/03/17 01:04:02;;;;;;;37.58;25.95;;;8.10;99.90;;;;;;1902769;75;21080;-76
2022/03/17 01:06:29;;;;;;;34.20;25.85;;;8.10;99.90;;;;;;1897091;75;21072;-75
2022/03/17 01:08:57;;;;;;;33.70;24.35;;;8.10;99.90;;;;;;1909345;75;21427;-75
2022/03/17 01:11:24;;;;;;;36.40;25.90;;;8.10;99.90;;;;;;1901536;75;21150;-75
2022/03/17 01:13:51;;;;;;;29.77;23.22;;;8.00;99.90;;;;;;1909055;75;21466;-75
2022/03/17 01:16:19;;;;;;;34.35;25.17;;;7.90;99.90;;;;;;1909228;74;21035;-76
2022/03/17 01:18:46;;;;;;;34.38;24.32;;;7.80;99.90;;;;;;1909219;74;21052;-75
2022/03/17 01:21:13;;;;;;;28.65;24.32;;;7.90;99.90;;;;;;1908135;74;21113;-76
2022/03/17 01:23:40;;;;;;;34.43;25.23;;;8.00;99.90;;;;;;1897851;75;21154;-76
2022/03/17 01:26:08;;;;;;;31.12;24.15;;;8.00;99.90;;;;;;1909211;75;21034;-76
2022/03/17 01:28:35;;;;;;;30.27;24.25;;;7.90;99.90;;;;;;1909123;75;21106;-76
2022/03/17 01:31:02;;;;;;;31.45;24.40;;;7.90;99.90;;;;;;1893872;74;21046;-76
2022/03/17 01:33:30;;;;;;;34.00;25.17;;;7.90;99.90;;;;;;1909149;74;21074;-75
2022/03/17 01:35:57;;;;;;;31.55;23.77;;;7.70;99.90;;;;;;1905288;74;21078;-75
2022/03/17 01:38:25;;;;;;;31.15;24.40;;;7.70;99.90;;;;;;1909159;75;21050;-76
2022/03/17 01:40:52;;;;;;;34.58;24.47;;;7.70;99.90;;;;;;1903781;74;21060;-76
2022/03/17 01:43:22;;;;;;;33.23;25.50;;;7.80;99.90;;;;;;1909194;74;21141;-76
2022/03/17 01:45:51;;;;;;;32.63;26.95;;;7.80;99.90;;;;;;1903952;74;21072;-76
2022/03/17 01:48:19;;;;;;;38.73;26.02;;;7.70;99.90;;;;;;1894742;74;21442;-75
2022/03/17 01:50:46;;;;;;;34.00;26.42;;;7.70;99.90;;;;;;1903150;74;21084;-76
2022/03/17 01:53:14;;;;;;;33.65;26.90;;;7.70;99.90;;;;;;1909472;75;21372;-75
2022/03/17 01:55:41;;;;;;;34.92;27.77;;;7.70;99.90;;;;;;1892908;75;21046;-76
2022/03/17 01:58:09;;;;;;;36.05;26.20;;;7.60;99.90;;;;;;1899830;74;21072;-76
2022/03/17 02:00:37;;;;;;;39.00;27.25;;;7.60;99.90;;;;;;1909172;74;21082;-75
2022/03/17 02:03:05;;;;;;;36.93;27.58;;;7.70;99.90;;;;;;1905038;74;21085;-75
2022/03/17 02:05:34;;;;;;;36.85;27.70;;;7.60;99.90;;;;;;1893063;75;21045;-76
2022/03/17 02:08:02;;;;;;;37.93;26.30;;;7.60;99.90;;;;;;1912113;70;21001;-76
2022/03/17 02:13:08;;;;;;;39.48;26.75;;;7.60;99.90;;;;;;1907637;74;21129;-76
2022/03/17 02:13:10;;;;;;;31.55;26.17;;;7.50;99.90;;;;;;1898133;74;21158;-76
2022/03/17 02:15:38;;;;;;;32.73;26.45;;;7.50;99.90;;;;;;1902054;75;21074;-76
2022/03/17 02:18:08;;;;;;;35.38;27.00;;;7.50;99.90;;;;;;1906056;75;21141;-76
2022/03/17 02:20:38;;;;;;;34.18;26.35;;;7.50;99.90;;;;;;1899058;74;21150;-76
2022/03/17 02:25:57;;;;;;;34.63;26.60;;;7.60;99.90;;;;;;1905170;74;21214;-74
2022/03/17 02:28:25;;;;;;;39.35;26.62;;;7.50;99.90;;;;;;1857946;76;21106;-75
2022/03/17 02:30:53;;;;;;;33.65;27.20;;;7.50;99.90;;;;;;1895258;74;21053;-74
2022/03/17 02:33:20;;;;;;;34.65;26.57;;;7.50;99.90;;;;;;1905680;74;21017;-74
2022/03/17 02:35:49;;;;;;;33.33;26.17;;;7.60;99.90;;;;;;1905458;75;21066;-74
2022/03/17 02:38:17;;;;;;;36.00;28.07;;;7.50;99.90;;;;;;1909444;75;21077;-74
2022/03/17 02:40:46;;;;;;;36.68;27.42;;;7.60;99.90;;;;;;1898628;74;21058;-73
2022/03/17 02:43:14;;;;;;;35.23;28.05;;;7.60;99.90;;;;;;1896440;74;21138;-74
2022/03/17 02:45:42;;;;;;;37.63;28.07;;;7.60;99.90;;;;;;1909287;75;21051;-73
2022/03/17 02:48:10;;;;;;;38.02;27.80;;;7.50;99.90;;;;;;1909297;74;21476;-75
2022/03/17 02:50:37;;;;;;;34.23;27.15;;;7.50;99.90;;;;;;1901676;74;21063;-74
2022/03/17 02:53:11;;;;;;;44.77;28.42;;;7.60;99.90;;;;;;1907336;74;21622;-75
2022/03/17 02:55:40;;;;;;;38.90;27.05;;;7.60;99.90;;;;;;1904076;74;21243;-74
2022/03/17 02:58:08;;;;;;;32.63;26.02;;;7.60;99.90;;;;;;1898095;74;21090;-75
2022/03/17 03:00:36;;;;;;;40.50;27.58;;;7.60;99.90;;;;;;1907502;75;21073;-75
2022/03/17 03:03:03;;;;;;;36.28;25.17;;;7.60;99.90;;;;;;1895505;74;21068;-75
2022/03/17 03:05:30;;;;;;;33.95;25.00;;;7.60;99.90;;;;;;1908241;74;21068;-75
2022/03/17 03:07:58;;;;;;;32.75;23.80;;;7.60;99.90;;;;;;1909280;74;21099;-74
2022/03/17 03:10:25;;;;;;;28.67;22.07;;;7.60;99.90;;;;;;1901984;74;21117;-74
2022/03/17 03:12:53;;;;;;;29.35;23.18;;;7.60;99.90;;;;;;1901212;74;21128;-75
2022/03/17 03:15:20;;;;;;;31.07;23.55;;;7.60;99.90;;;;;;1910268;74;21090;-75
2022/03/17 03:17:47;;;;;;;32.90;23.95;;;7.60;99.90;;;;;;1905921;73;21138;-76
2022/03/17 03:20:15;;;;;;;31.00;23.87;;;7.50;99.90;;;;;;1904694;70;21105;-76
2022/03/17 03:22:42;;;;;;;35.50;24.02;;;7.60;99.90;;;;;;1908502;75;21101;-74
2022/03/17 03:25:10;;;;;;;29.60;23.47;;;7.60;99.90;;;;;;1901482;74;21051;-75
2022/03/17 03:27:40;;;;;;;30.92;24.80;;;7.60;99.90;;;;;;1909257;75;21118;-74
2022/03/17 03:30:08;;;;;;;30.97;23.98;;;7.70;99.90;;;;;;1906107;75;21658;-75
2022/03/17 03:32:37;;;;;;;32.08;24.52;;;7.70;99.90;;;;;;1899319;75;21072;-75
2022/03/17 03:37:22;;;;;;;37.03;26.35;;;7.60;99.90;;;;;;1907857;74;21535;-75
2022/03/17 03:37:34;;;;;;;31.25;25.37;;;7.60;99.90;;;;;;1908642;74;21621;-75
2022/03/17 03:40:02;;;;;;;39.38;25.32;;;7.60;99.90;;;;;;1897774;74;21070;-75
2022/03/17 03:42:29;;;;;;;35.08;25.92;;;7.60;99.90;;;;;;1909079;75;21457;-74
2022/03/17 03:44:57;;;;;;;33.85;23.00;;;7.70;99.90;;;;;;1909284;74;21532;-75
2022/03/17 03:47:26;;;;;;;37.17;25.82;;;7.80;99.90;;;;;;1909151;74;21460;-74
2022/03/17 03:49:53;;;;;;;34.20;24.90;;;7.80;99.90;;;;;;1908415;74;21143;-76
2022/03/17 03:52:20;;;;;;;37.00;26.17;;;7.80;99.90;;;;;;1902973;75;21016;-75
2022/03/17 03:54:47;;;;;;;33.08;25.32;;;7.70;99.90;;;;;;1894577;74;21086;-75
2022/03/17 03:57:15;;;;;;;34.90;26.35;;;7.60;99.90;;;;;;1901101;75;21092;-75
2022/03/17 03:59:42;;;;;;;32.95;25.55;;;7.60;99.90;;;;;;1904127;75;21052;-75
2022/03/17 04:02:10;;;;;;;37.25;26.00;;;7.70;99.90;;;;;;1901498;74;21148;-75
2022/03/17 04:04:43;;;;;;;32.90;24.47;;;7.80;99.90;;;;;;1909245;75;21037;-75
2022/03/17 04:07:09;;;;;;;26.42;22.95;;;7.80;99.90;;;;;;1896484;74;21107;-75
2022/03/17 04:09:39;;;;;;;35.70;25.23;;;7.80;99.90;;;;;;1909172;75;21036;-74
2022/03/17 04:12:08;;;;;;;32.80;25.25;;;7.80;99.90;;;;;;1901670;75;21067;-74
2022/03/17 04:14:36;;;;;;;33.60;25.30;;;7.80;99.90;;;;;;1906070;74;21068;-75
2022/03/17 04:17:04;;;;;;;31.90;24.27;;;7.80;99.90;;;;;;1907468;75;21534;-75
2022/03/17 04:19:31;;;;;;;34.23;25.75;;;7.90;99.90;;;;;;1905381;74;21564;-75
2022/03/17 04:21:59;;;;;;;29.82;25.97;;;7.80;99.90;;;;;;1906460;74;21161;-75
2022/03/17 04:24:26;;;;;;;40.92;26.00;;;7.80;99.90;;;;;;1892915;74;21570;-75
2022/03/17 04:26:54;;;;;;;35.08;26.50;;;7.80;99.90;;;;;;1895172;74;21500;-75
2022/03/17 04:29:21;;;;;;;28.67;23.77;;;7.80;99.90;;;;;;1895307;75;21134;-74
2022/03/17 04:31:49;;;;;;;34.15;25.72;;;7.80;99.90;;;;;;1902246;74;21143;-75
2022/03/17 04:34:18;;;;;;;30.90;25.08;;;7.80;99.90;;;;;;1905856;75;21102;-75
2022/03/17 04:36:45;;;;;;;34.13;25.72;;;7.90;99.90;;;;;;1909421;75;21067;-75
2022/03/17 04:39:16;;;;;;;39.75;26.15;;;7.90;99.90;;;;;;1909470;75;21110;-75
2022/03/17 04:41:45;;;;;;;42.08;27.02;;;8.00;99.90;;;;;;1871205;76;21100;-75
2022/03/17 04:44:13;;;;;;;38.28;26.95;;;7.90;99.90;;;;;;1896062;74;21142;-74
2022/03/17 04:46:46;;;;;;;35.28;26.90;;;7.90;99.90;;;;;;1909147;74;21128;-74
2022/03/17 04:49:10;;;;;;;38.55;27.55;;;7.90;99.90;;;;;;1902240;74;21112;-75
2022/03/17 04:51:37;;;;;;;38.92;27.45;;;7.90;99.90;;;;;;1909282;75;21089;-75
2022/03/17 04:54:06;;;;;;;37.20;28.30;;;7.90;99.90;;;;;;1903775;74;21130;-75
2022/03/17 04:56:33;;;;;;;36.65;27.10;;;7.90;99.90;;;;;;1903500;74;21074;-75
2022/03/17 04:59:02;;;;;;;37.28;27.45;;;7.80;99.90;;;;;;1900281;75;21135;-76
2022/03/17 05:01:29;;;;;;;36.08;28.75;;;7.80;99.90;;;;;;1905210;75;21095;-74
2022/03/17 05:03:57;;;;;;;38.30;27.35;;;7.80;99.90;;;;;;1895431;74;21542;-75
2022/03/17 05:06:24;;;;;;;37.23;27.77;;;7.70;99.90;;;;;;1897307;75;21146;-75
2022/03/17 05:08:51;;;;;;;36.73;28.12;;;7.80;99.90;;;;;;1900003;75;21426;-74
2022/03/17 05:11:19;;;;;;;36.03;27.40;;;7.80;99.90;;;;;;1903009;74;21072;-74
2022/03/17 05:13:51;;;;;;;38.58;26.23;;;7.80;99.90;;;;;;1906766;74;21062;-75
2022/03/17 05:16:18;;;;;;;36.30;25.88;;;7.80;99.90;;;;;;1897314;74;21066;-75
2022/03/17 05:18:47;;;;;;;35.23;27.50;;;7.90;99.90;;;;;;1908768;75;21091;-75
2022/03/17 05:21:14;;;;;;;39.10;27.13;;;7.80;99.90;;;;;;1907717;74;21073;-75
2022/03/17 05:23:41;;;;;;;36.15;28.17;;;7.70;99.90;;;;;;1895195;74;21072;-75
2022/03/17 05:26:09;;;;;;;34.92;27.02;;;7.70;99.90;;;;;;1901518;74;21209;-74
2022/03/17 05:28:36;;;;;;;33.78;26.75;;;7.70;99.90;;;;;;1901550;74;21049;-73
2022/03/17 05:31:03;;;;;;;34.78;26.40;;;7.80;99.90;;;;;;1909229;75;21100;-74
2022/03/17 05:33:31;;;;;;;38.05;26.05;;;7.90;99.90;;;;;;1901269;74;21126;-75
2022/03/17 05:35:58;;;;;;;40.43;26.85;;;7.90;99.90;;;;;;1906736;74;21108;-75
2022/03/17 05:38:25;;;;;;;35.00;27.60;;;7.80;99.90;;;;;;1907267;75;21098;-74
2022/03/17 05:40:53;;;;;;;40.40;27.00;;;7.70;99.90;;;;;;1909179;75;21030;-74
2022/03/17 05:43:20;;;;;;;38.67;28.07;;;7.70;99.90;;;;;;1906348;74;21476;-75
2022/03/17 05:45:47;;;;;;;38.30;27.65;;;7.70;99.90;;;;;;1907225;74;21068;-74
2022/03/17 05:48:14;;;;;;;31.95;25.80;;;7.90;99.90;;;;;;1909184;75;21516;-76
2022/03/17 05:50:45;;;;;;;38.90;27.10;;;7.80;99.90;;;;;;1902596;75;21049;-76
2022/03/17 05:53:12;;;;;;;34.33;26.90;;;7.80;99.90;;;;;;1897774;75;21211;-75
2022/03/17 05:55:39;;;;;;;37.30;25.62;;;7.90;99.90;;;;;;1909019;75;21054;-75
2022/03/17 05:58:07;;;;;;;36.10;26.65;;;7.90;99.90;;;;;;1909303;75;21045;-76
2022/03/17 06:00:35;;;;;;;38.70;27.45;;;8.00;99.90;;;;;;1909108;75;21071;-75
2022/03/17 06:03:04;;;;;;;35.08;26.10;;;8.00;99.90;;;;;;1901336;75;21084;-75
2022/03/17 06:05:31;;;;;;;35.63;26.02;;;8.00;99.90;;;;;;1857143;76;21124;-75
2022/03/17 06:08:04;;;;;;;36.30;25.95;;;8.00;99.90;;;;;;1893919;75;21072;-76
2022/03/17 06:10:32;;;;;;;34.15;26.23;;;7.90;99.90;;;;;;1907777;75;21084;-76
2022/03/17 06:13:03;;;;;;;36.28;26.85;;;8.00;99.90;;;;;;1899819;74;21070;-76
2022/03/17 06:15:31;;;;;;;37.48;26.65;;;8.00;99.90;;;;;;1903290;75;21056;-74
2022/03/17 06:17:59;;;;;;;31.55;25.02;;;7.90;99.90;;;;;;1909332;74;21011;-79
2022/03/17 06:20:28;;;;;;;38.53;26.85;;;8.00;99.90;;;;;;1876580;75;21061;-73
2022/03/17 06:22:58;;;;;;;33.75;25.97;;;8.10;99.90;;;;;;1909447;75;21514;-73
2022/03/17 06:25:27;;;;;;;36.28;27.73;;;8.00;99.90;;;;;;1898254;75;21511;-75
2022/03/17 06:27:54;;;;;;;34.60;25.20;;;8.20;99.90;;;;;;1902615;74;21040;-74
2022/03/17 06:30:26;;;;;;;35.80;24.95;;;8.30;99.90;;;;;;1902624;74;21476;-76
2022/03/17 06:32:54;;;;;;;35.83;26.50;;;8.30;99.90;;;;;;1900436;75;21009;-74
2022/03/17 06:35:26;;;;;;;40.15;25.27;;;8.30;99.90;;;;;;1891725;74;21054;-77
2022/03/17 06:37:57;;;;;;;36.33;27.58;;;8.30;99.90;;;;;;1894683;74;21054;-76
2022/03/17 06:40:25;;;;;;;34.25;26.20;;;8.10;99.90;;;;;;1900023;74;21150;-74
2022/03/17 06:42:53;;;;;;;36.63;26.73;;;8.10;99.90;;;;;;1905339;75;21148;-74
2022/03/17 06:45:20;;;;;;;36.55;27.07;;;8.20;99.90;;;;;;1909279;75;21032;-75
2022/03/17 06:47:47;;;;;;;40.98;26.95;;;8.20;99.90;;;;;;1909412;75;21011;-71
2022/03/17 06:50:15;;;;;;;37.78;25.57;;;8.20;99.90;;;;;;1904404;74;21068;-80
2022/03/17 06:52:43;;;;;;;38.28;26.80;;;8.30;99.90;;;;;;1899162;74;21074;-75
2022/03/17 06:55:10;;;;;;;36.90;25.08;;;8.30;99.90;;;;;;1905839;74;21512;-77
2022/03/17 06:57:37;;;;;;;35.38;25.97;;;8.40;99.90;;;;;;1902164;74;21217;-74
2022/03/17 07:00:10;;;;;;;35.52;25.52;;;8.40;99.90;;;;;;1904107;75;21084;-74
2022/03/17 07:02:37;;;;;;;36.93;24.98;;;8.40;99.90;;;;;;1908933;75;21513;-74
2022/03/17 07:05:05;;;;;;;36.83;26.12;;;8.40;99.90;;;;;;1899407;74;21077;-73
2022/03/17 07:07:33;;;;;;;31.62;25.20;;;8.50;99.90;;;;;;1895557;74;21084;-71
2022/03/17 07:10:01;;;;;;;35.35;25.60;;;8.50;99.90;;;;;;1890781;74;21160;-78
2022/03/17 07:12:28;;;;;;;42.60;26.70;;;8.60;99.90;;;;;;1909455;75;21126;-79
2022/03/17 07:14:57;;;;;;;32.95;26.05;;;8.60;99.90;;;;;;1909185;74;21215;-77
2022/03/17 07:17:24;;;;;;;36.58;25.23;;;8.50;99.90;;;;;;1877217;75;21054;-78
2022/03/17 07:22:29;;;;;;;36.15;25.82;;;8.60;99.90;;;;;;1905371;75;21063;-75
2022/03/17 07:24:56;;;;;;;27.93;24.90;;;8.70;99.90;;;;;;1906920;74;21476;-76
2022/03/17 07:27:24;;;;;;;30.48;24.10;;;8.80;99.90;;;;;;1894996;74;21064;-75
2022/03/17 07:29:52;;;;;;;37.13;25.95;;;8.80;99.90;;;;;;1905418;75;21516;-76
2022/03/17 07:32:20;;;;;;;35.80;25.32;;;8.90;99.90;;;;;;1899274;75;21114;-76
2022/03/17 07:34:47;;;;;;;32.65;22.98;;;8.90;99.90;;;;;;1893295;74;21567;-76
2022/03/17 07:37:15;;;;;;;32.17;25.32;;;8.90;99.90;;;;;;1898693;74;21519;-76
2022/03/17 07:39:42;;;;;;;28.67;24.85;;;9.10;99.90;;;;;;1907844;75;21034;-77
2022/03/17 07:42:10;;;;;;;35.58;24.75;;;9.10;99.90;;;;;;1902953;74;21041;-76
2022/03/17 07:44:37;;;;;;;36.73;25.97;;;9.20;99.90;;;;;;1902568;74;21049;-76
2022/03/17 07:47:07;;;;;;;39.40;25.15;;;9.20;99.90;;;;;;1909529;75;21091;-76
2022/03/17 07:49:37;;;;;;;35.40;25.48;;;9.20;99.90;;;;;;1902623;74;21150;-76
2022/03/17 07:52:05;;;;;;;38.33;25.88;;;9.20;99.90;;;;;;1909278;75;21047;-75
2022/03/17 07:54:32;;;;;;;36.17;25.00;;;9.30;99.90;;;;;;1902237;74;21543;-75
2022/03/17 07:57:01;;;;;;;36.17;25.82;;;9.40;99.90;;;;;;1906183;74;21083;-76
2022/03/17 07:59:29;;;;;;;31.25;24.95;;;9.40;99.90;;;;;;1905679;74;21074;-75
2022/03/17 08:01:56;;;;;;;28.02;23.95;;;9.40;99.90;;;;;;1905010;74;21123;-76
2022/03/17 08:04:23;;;;;;;30.17;23.40;;;9.50;99.90;;;;;;1849298;74;21050;-75
2022/03/17 08:06:53;;;;;;;29.70;24.90;;;9.50;99.90;;;;;;1902262;74;21069;-76
2022/03/17 08:09:20;;;;;;;30.23;24.50;;;9.50;99.90;;;;;;1909336;75;21093;-76
2022/03/17 08:11:48;;;;;;;36.88;25.05;;;9.50;99.90;;;;;;1906257;74;21078;-75
2022/03/17 08:14:16;;;;;;;32.38;24.92;;;9.50;99.90;;;;;;1909589;74;21132;-75
2022/03/17 08:16:44;;;;;;;33.10;25.60;;;9.70;99.90;;;;;;1912769;75;21051;-75
2022/03/17 08:19:13;;;;;;;30.32;23.95;;;9.70;99.90;;;;;;1904374;74;21148;-76
2022/03/17 08:21:40;;;;;;;34.73;24.37;;;9.70;99.90;;;;;;1898118;74;21138;-76
2022/03/17 08:24:08;;;;;;;33.92;25.62;;;9.80;99.90;;;;;;1895192;76;21044;-75
2022/03/17 08:26:37;;;;;;;32.90;25.23;;;9.70;99.90;;;;;;1897500;74;21111;-75
2022/03/17 08:29:05;;;;;;;40.58;23.77;;;9.80;99.90;;;;;;1904574;75;21150;-76
2022/03/17 08:31:32;;;;;;;33.38;24.23;;;9.70;99.90;;;;;;1909202;75;21070;-76
2022/03/17 08:33:59;;;;;;;35.28;24.87;;;9.70;99.90;;;;;;1907526;74;21506;-75
2022/03/17 08:36:28;;;;;;;41.08;25.25;;;9.70;99.90;;;;;;1905704;75;21076;-75
2022/03/17 08:38:55;;;;;;;32.85;24.70;;;9.60;99.90;;;;;;1897767;75;21151;-76
2022/03/17 08:41:22;;;;;;;36.10;25.43;;;9.70;99.90;;;;;;1909128;75;21072;-75
2022/03/17 08:43:51;;;;;;;34.55;25.77;;;9.80;99.90;;;;;;1902560;74;21470;-76
2022/03/17 08:49:22;;;;;;;44.18;26.05;;;9.90;99.90;;;;;;1904591;75;21548;-75
2022/03/17 08:51:54;;;;;;;39.73;25.37;;;10.00;99.90;;;;;;1909023;74;21070;-75
2022/03/17 08:54:23;;;;;;;33.70;24.32;;;10.10;99.90;;;;;;1909053;74;21472;-75
2022/03/17 08:56:52;;;;;;;32.53;25.37;;;10.20;99.90;;;;;;1909448;75;21040;-75
2022/03/17 08:59:19;;;;;;;38.00;25.72;;;10.20;99.90;;;;;;1901620;74;21306;-75
2022/03/17 09:01:47;;;;;;;34.50;25.20;;;10.30;99.90;;;;;;1898030;74;21535;-75
2022/03/17 09:04:15;;;;;;;31.30;24.52;;;10.50;99.90;;;;;;1908502;74;21201;-75
2022/03/17 09:06:43;;;;;;;37.88;25.00;;;10.60;99.90;;;;;;1897339;75;21130;-76
2022/03/17 09:09:12;;;;;;;35.13;25.27;;;10.70;99.90;;;;;;1909749;74;21070;-77
2022/03/17 09:11:39;;;;;;;40.12;25.52;;;10.60;99.90;;;;;;1901705;74;21155;-77
2022/03/17 09:14:08;;;;;;;36.77;25.05;;;10.60;99.90;;;;;;1907698;75;21003;-81
2022/03/17 09:16:36;;;;;;;32.80;25.65;;;10.60;99.90;;;;;;1896047;74;21115;-78
2022/03/17 09:19:03;;;;;;;35.95;26.02;;;10.50;99.90;;;;;;1904023;75;21005;-79
2022/03/17 09:21:31;;;;;;;34.00;26.27;;;10.40;99.90;;;;;;1908335;75;21067;-76
2022/03/17 09:24:00;;;;;;;38.00;25.27;;;10.20;99.90;;;;;;1905349;70;21073;-77
2022/03/17 09:26:27;;;;;;;32.73;26.17;;;10.30;99.90;;;;;;1901681;71;21046;-77
2022/03/17 09:28:54;;;;;;;38.13;25.92;;;10.40;99.90;;;;;;1912838;74;21183;-76
2022/03/17 09:31:22;;;;;;;40.92;27.87;;;10.50;99.90;;;;;;1912065;74;21070;-77
2022/03/17 09:33:50;;;;;;;33.20;26.20;;;10.60;99.90;;;;;;1908621;75;21053;-77
2022/03/17 09:36:17;;;;;;;33.70;27.35;;;10.40;99.90;;;;;;1891874;75;21069;-77
2022/03/17 09:39:39;;;;;;;32.98;25.82;;;10.50;99.90;;;;;;1910290;75;21032;-75
2022/03/17 09:41:24;;;;;;;32.50;26.93;;;10.50;99.90;;;;;;1906212;75;21095;-78
2022/03/17 09:43:56;;;;;;;37.15;26.37;;;10.50;99.90;;;;;;1896773;75;21053;-80
2022/03/17 09:46:23;;;;;;;37.28;27.45;;;10.60;99.90;;;;;;1909891;75;21161;-76
2022/03/17 09:48:54;;;;;;;32.98;26.57;;;10.70;99.90;;;;;;1899534;74;21448;-77
2022/03/17 09:51:25;;;;;;;37.25;26.20;;;10.70;99.90;;;;;;1893432;75;21201;-75
2022/03/17 09:53:53;;;;;;;35.17;25.77;;;11.00;99.90;;;;;;1894461;76;21030;-75
2022/03/17 09:56:24;;;;;;;32.40;24.98;;;11.10;99.90;;;;;;1895095;74;21155;-74
2022/03/17 09:58:53;;;;;;;34.55;26.68;;;11.30;99.90;;;;;;1849506;76;21053;-72
2022/03/17 10:01:22;;;;;;;39.38;27.93;;;11.40;99.90;;;;;;1898142;75;21467;-70
2022/03/17 10:03:51;;;;;;;33.48;26.37;;;11.10;99.90;;;;;;1906304;74;21665;-73
2022/03/17 10:06:18;;;;;;;35.85;27.30;;;11.10;99.90;;;;;;1903538;75;21094;-78
2022/03/17 10:08:52;;;;;;;35.92;26.52;;;11.10;99.90;;;;;;1906033;75;21078;-74
2022/03/17 10:11:19;;;;;;;42.65;27.85;;;11.20;99.90;;;;;;1910585;74;21097;-72
2022/03/17 10:13:47;;;;;;;32.58;25.57;;;11.10;99.90;;;;;;1894048;74;21524;-72
2022/03/17 10:16:20;;;;;;;45.85;27.60;;;11.00;99.90;;;;;;1901740;75;21154;-73
2022/03/17 10:18:49;;;;;;;39.95;26.42;;;11.10;99.90;;;;;;1908344;74;21046;-74
2022/03/17 10:21:18;;;;;;;30.85;26.27;;;11.20;99.90;;;;;;1909490;74;21119;-74
2022/03/17 10:23:50;;;;;;;37.20;26.85;;;11.50;99.90;;;;;;1895188;76;21118;-74
2022/03/17 10:26:35;;;;;;;34.40;26.52;;;11.70;99.90;;;;;;1899728;74;21076;-74
2022/03/17 10:29:15;;;;;;;39.25;27.30;;;11.60;99.90;;;;;;1902805;74;21227;-74
2022/03/17 10:32:02;;;;;;;33.20;26.23;;;11.70;99.90;;;;;;1907074;74;21138;-74
2022/03/17 10:34:32;;;;;;;32.35;26.87;;;11.90;99.90;;;;;;1898280;74;21132;-74
2022/03/17 10:37:11;;;;;;;46.85;27.55;;;12.00;99.90;;;;;;1862118;76;21093;-74
2022/03/17 10:39:52;;;;;;;39.88;29.07;;;11.70;99.90;;;;;;1898881;75;21491;-74
2022/03/17 10:42:19;;;;;;;;;;;11.40;99.90;;;;;;1906161;74;21081;-74
2022/03/17 10:44:55;;;;;;;34.43;26.35;;;11.30;99.90;;;;;;1888942;74;20163;-75
2022/03/17 10:47:27;;;;;;;36.38;27.60;;;11.30;99.90;;;;;;1894238;75;21130;-75
2022/03/17 10:50:22;;;;;;;34.70;26.35;;;11.40;99.90;;;;;;1905305;74;21082;-83
2022/03/17 10:52:58;;;;;;;32.58;26.42;;;11.50;99.90;;;;;;1876218;76;21121;-74
2022/03/17 10:55:30;;;;;;;35.43;25.02;;;11.50;99.90;;;;;;1869924;76;21439;-74
2022/03/17 10:58:15;;;;;;;32.75;26.33;;;11.40;99.90;;;;;;1857516;76;21111;-74
2022/03/17 11:00:51;;;;;;;43.28;26.68;;;11.30;99.90;;;;;;1869808;76;21371;-74
2022/03/17 11:03:19;;;;;;;37.20;26.82;;;11.30;99.90;;;;;;1863617;76;21117;-74
2022/03/17 11:05:50;;;;;;;44.08;28.75;;;11.50;99.90;;;;;;1863588;76;21473;-73
2022/03/17 11:08:15;;;;;;;36.80;27.30;;;11.50;99.90;;;;;;1863993;76;21092;-74
2022/03/17 11:10:42;;;;;;;31.30;25.12;;;11.60;99.90;;;;;;1875289;76;21043;-74
2022/03/17 11:13:11;;;;;;;37.50;27.00;;;11.70;99.90;;;;;;1857661;76;21082;-77
2022/03/17 11:15:41;;;;;;;39.90;26.20;;;11.80;99.90;;;;;;1863196;76;21456;-78
2022/03/17 11:18:10;;;;;;;38.83;26.47;;;11.90;99.90;;;;;;1859883;76;21133;-77
2022/03/17 11:20:39;;;;;;;36.23;27.70;;;11.80;99.90;;;;;;1865538;76;21464;-77
2022/03/17 11:23:11;;;;;;;41.28;26.25;;;11.90;99.90;;;;;;1873309;76;21157;-77
2022/03/17 11:25:38;;;;;;;34.23;26.07;;;12.10;99.90;;;;;;1876908;76;21525;-77
2022/03/17 11:28:06;;;;;;;36.80;25.85;;;12.10;99.90;;;;;;1877187;76;21079;-77
2022/03/17 11:30:47;;;;;;;35.68;26.15;;;12.10;99.90;;;;;;1863015;76;21121;-77
2022/03/17 11:33:24;;;;;;;36.30;26.20;;;12.10;99.90;;;;;;1870547;76;21027;-74
2022/03/17 11:35:59;;;;;;;35.65;24.25;;;12.20;99.90;;;;;;1855303;76;21102;-76
2022/03/17 11:38:29;;;;;;;34.78;25.88;;;12.00;99.90;;;;;;1873336;76;21077;-76
2022/03/17 11:41:13;;;;;;;34.50;24.70;;;12.20;99.90;;;;;;1862341;76;21077;-76
2022/03/17 11:43:51;;;;;;;29.37;23.50;;;12.20;99.90;;;;;;1861153;76;21432;-78
2022/03/17 11:46:20;;;;;;;31.60;24.35;;;12.20;99.90;;;;;;1857032;76;21155;-76
2022/03/17 11:48:54;;;;;;;36.55;24.18;;;12.20;99.90;;;;;;1875742;76;21160;-78
2022/03/17 11:51:18;;;;;;;;;;;12.10;99.90;;;;;;1878990;75;21159;-78
2022/03/17 11:53:55;;;;;;;34.10;23.77;;;12.20;99.90;;;;;;1865050;76;20112;-77
2022/03/17 11:56:35;;;;;;;35.45;24.92;;;12.20;99.90;;;;;;1885429;76;21259;-77
2022/03/17 11:59:03;;;;;;;32.08;24.52;;;12.10;99.90;;;;;;1862176;76;21482;-76
2022/03/17 12:01:35;;;;;;;39.90;25.85;;;12.10;99.90;;;;;;1873774;76;21149;-77
2022/03/17 12:04:09;;;;;;;39.15;27.20;;;12.10;99.90;;;;;;1869839;76;21452;-75
2022/03/17 12:06:41;;;;;;;38.48;26.48;;;11.90;99.90;;;;;;1877168;76;21027;-79
2022/03/17 12:09:11;;;;;;;38.20;26.57;;;11.90;99.90;;;;;;1856486;77;21067;-77
2022/03/17 12:11:42;;;;;;;36.17;25.65;;;11.90;99.90;;;;;;1877154;76;21056;-76
2022/03/17 12:14:19;;;;;;;46.15;26.30;;;12.00;99.90;;;;;;1857852;76;21116;-77
2022/03/17 12:16:51;;;;;;;38.17;27.02;;;12.00;99.90;;;;;;1874708;76;21278;-76
2022/03/17 12:19:40;;;;;;;37.67;26.80;;;11.80;99.90;;;;;;1862041;76;21180;-75
2022/03/17 12:22:13;;;;;;;34.18;26.30;;;11.90;99.90;;;;;;1856337;76;21089;-77
2022/03/17 12:24:47;;;;;;;36.03;27.80;;;12.00;99.90;;;;;;1871672;76;21079;-75
2022/03/17 12:27:23;;;;;;;39.18;27.62;;;11.90;99.90;;;;;;1866222;75;21117;-76
2022/03/17 12:30:04;;;;;;;43.00;27.42;;;12.00;99.90;;;;;;1863515;76;21500;-76
2022/03/17 12:32:36;;;;;;;36.60;26.40;;;12.10;99.90;;;;;;1856341;77;21469;-76
2022/03/17 12:35:03;;;;;;;39.45;27.45;;;12.10;99.90;;;;;;1866409;76;21339;-75
2022/03/17 12:37:34;;;;;;;34.23;26.15;;;12.20;99.90;;;;;;1859653;76;21127;-76
2022/03/17 12:40:07;;;;;;;41.48;28.10;;;12.20;99.90;;;;;;1872259;76;21614;-76
2022/03/17 12:42:39;;;;;;;43.13;30.75;;;12.30;99.90;;;;;;1865199;76;21089;-77
2022/03/17 12:45:09;;;;;;;44.30;29.70;;;12.30;99.90;;;;;;1867509;76;21083;-75
2022/03/17 12:47:39;;;;;;;41.42;30.30;;;12.40;99.90;;;;;;1861532;76;21211;-76
2022/03/17 12:50:08;;;;;;;46.70;27.75;;;12.30;99.90;;;;;;1860325;76;21066;-75
2022/03/17 12:52:37;;;;;;;37.63;27.65;;;12.20;99.90;;;;;;1856131;76;21065;-75